createdAt,value
2023-11-07T00:01:29.080Z,74.21
2023-11-07T00:03:56.619Z,73.87
2023-11-07T00:06:23.876Z,73.59
2023-11-07T00:08:52.649Z,73.59
2023-11-07T00:11:20.516Z,73.48
2023-11-07T00:13:49.973Z,73.22
2023-11-07T00:16:17.113Z,73.06
2023-11-07T00:18:44.243Z,72.78
2023-11-07T00:21:11.275Z,72.61
2023-11-07T00:23:39.095Z,72.40
2023-11-07T00:26:06.692Z,72.40
2023-11-07T00:28:33.633Z,72.32
2023-11-07T00:31:00.822Z,72.26
2023-11-07T00:33:27.875Z,72.29
2023-11-07T00:35:54.936Z,72.29
2023-11-07T00:38:21.867Z,72.26
2023-11-07T00:40:50.270Z,72.22
2023-11-07T00:43:18.643Z,72.29
2023-11-07T00:45:45.720Z,72.28
2023-11-07T00:48:13.033Z,72.26
2023-11-07T00:50:40.369Z,72.63
2023-11-07T00:53:07.553Z,72.88
2023-11-07T00:55:34.533Z,72.89
2023-11-07T00:58:01.437Z,73.15
2023-11-07T01:00:29.380Z,73.15
2023-11-07T01:02:56.304Z,72.97
2023-11-07T01:05:23.719Z,72.78
2023-11-07T01:07:50.660Z,72.84
2023-11-07T01:10:19.113Z,72.74
2023-11-07T01:12:46.423Z,72.91
2023-11-07T01:15:13.560Z,72.75
2023-11-07T01:17:40.666Z,72.65
2023-11-07T01:20:08.549Z,72.84
2023-11-07T01:22:35.480Z,72.74
2023-11-07T01:25:02.410Z,72.78
2023-11-07T01:27:29.286Z,72.81
2023-11-07T01:29:56.202Z,72.70
2023-11-07T01:32:23.088Z,72.60
2023-11-07T01:34:49.939Z,72.94
2023-11-07T01:37:16.854Z,72.87
2023-11-07T01:39:43.721Z,72.99
2023-11-07T01:42:10.954Z,73.19
2023-11-07T01:44:49.989Z,73.09
2023-11-07T01:47:19.621Z,73.00
2023-11-07T01:49:47.672Z,73.04
2023-11-07T01:52:19.024Z,72.92
2023-11-07T01:54:52.764Z,72.82
2023-11-07T01:57:20.739Z,72.77
2023-11-07T01:59:49.595Z,72.64
2023-11-07T02:02:19.937Z,72.35
2023-11-07T02:04:48.608Z,72.11
2023-11-07T02:07:16.597Z,71.74
2023-11-07T02:09:44.174Z,71.45
2023-11-07T02:12:11.318Z,71.23
2023-11-07T02:14:41.422Z,71.18
2023-11-07T02:17:08.419Z,71.16
2023-11-07T02:19:35.802Z,71.36
2023-11-07T02:22:04.785Z,71.61
2023-11-07T02:24:31.897Z,71.55
2023-11-07T02:26:59.453Z,71.73
2023-11-07T02:29:26.514Z,71.98
2023-11-07T02:31:53.739Z,72.28
2023-11-07T02:34:20.990Z,72.44
2023-11-07T02:36:48.961Z,72.76
2023-11-07T02:39:16.949Z,72.96
2023-11-07T02:41:46.046Z,72.78
2023-11-07T02:44:13.296Z,73.21
2023-11-07T02:46:41.197Z,73.45
2023-11-07T02:49:08.784Z,73.48
2023-11-07T02:51:35.907Z,73.39
2023-11-07T02:54:03.010Z,73.52
2023-11-07T02:56:30.356Z,73.43
2023-11-07T02:58:58.026Z,73.39
2023-11-07T03:01:24.953Z,73.42
2023-11-07T03:03:52.637Z,73.43
2023-11-07T03:06:19.973Z,73.62
2023-11-07T03:08:47.005Z,73.67
2023-11-07T03:11:13.921Z,73.63
2023-11-07T03:13:40.923Z,73.69
2023-11-07T03:16:09.172Z,73.68
2023-11-07T03:18:36.415Z,73.53
2023-11-07T03:21:08.062Z,73.51
2023-11-07T03:23:35.452Z,73.91
2023-11-07T03:26:04.040Z,74.29
2023-11-07T03:28:31.104Z,74.44
2023-11-07T03:30:58.041Z,74.78
2023-11-07T03:33:25.347Z,75.11
2023-11-07T03:35:53.430Z,75.23
2023-11-07T03:38:21.207Z,75.36
2023-11-07T03:40:48.307Z,75.43
2023-11-07T03:43:15.259Z,75.58
2023-11-07T03:45:42.206Z,75.85
2023-11-07T03:48:09.368Z,76.10
2023-11-07T03:50:36.906Z,76.07
2023-11-07T03:53:03.984Z,76.23
2023-11-07T03:55:30.879Z,76.19
2023-11-07T03:57:57.761Z,76.53
2023-11-07T04:00:25.109Z,76.40
2023-11-07T04:02:52.562Z,76.59
2023-11-07T04:05:20.113Z,76.74
2023-11-07T04:07:47.427Z,76.51
2023-11-07T04:10:14.484Z,76.11
2023-11-07T04:12:41.511Z,75.83
2023-11-07T04:15:11.042Z,76.09
2023-11-07T04:17:38.490Z,76.22
2023-11-07T04:20:06.005Z,76.32
2023-11-07T04:22:33.083Z,76.26
2023-11-07T04:25:01.179Z,76.18
2023-11-07T04:27:28.211Z,76.16
2023-11-07T04:29:55.438Z,76.05
2023-11-07T04:32:23.031Z,76.24
2023-11-07T04:34:50.010Z,76.25
2023-11-07T04:37:17.146Z,76.28
2023-11-07T04:39:44.163Z,76.04
2023-11-07T04:42:11.715Z,75.87
2023-11-07T04:44:38.742Z,75.88
2023-11-07T04:47:06.990Z,75.67
2023-11-07T04:49:35.239Z,75.81
2023-11-07T04:52:03.721Z,76.21
2023-11-07T04:54:30.919Z,76.26
2023-11-07T04:56:58.975Z,76.44
2023-11-07T04:59:26.017Z,76.56
2023-11-07T05:01:54.307Z,76.63
2023-11-07T05:04:21.534Z,76.60
2023-11-07T05:06:49.143Z,76.70
2023-11-07T05:09:16.321Z,76.59
2023-11-07T05:11:44.464Z,76.49
2023-11-07T05:14:11.667Z,77.03
2023-11-07T05:16:40.015Z,76.98
2023-11-07T05:19:09.351Z,76.76
2023-11-07T05:21:37.722Z,76.95
2023-11-07T05:24:06.367Z,77.06
2023-11-07T05:26:33.272Z,77.44
2023-11-07T05:29:01.537Z,77.33
2023-11-07T05:31:28.542Z,77.18
2023-11-07T05:33:55.619Z,77.27
2023-11-07T05:36:22.681Z,77.13
2023-11-07T05:38:51.025Z,77.15
2023-11-07T05:41:19.784Z,77.05
2023-11-07T05:43:46.638Z,77.16
2023-11-07T05:46:13.675Z,77.10
2023-11-07T05:48:41.030Z,77.14
2023-11-07T05:51:08.743Z,76.99
2023-11-07T05:53:35.867Z,76.96
2023-11-07T05:56:03.134Z,76.81
2023-11-07T05:58:30.808Z,76.92
2023-11-07T06:00:58.690Z,76.84
2023-11-07T06:03:25.866Z,76.56
2023-11-07T06:05:53.263Z,75.92
2023-11-07T06:08:21.512Z,75.16
2023-11-07T06:10:49.094Z,74.53
2023-11-07T06:13:16.711Z,74.02
2023-11-07T06:15:43.601Z,73.46
2023-11-07T06:18:11.068Z,73.26
2023-11-07T06:20:38.085Z,73.10
2023-11-07T06:23:05.128Z,72.79
2023-11-07T06:25:32.408Z,72.90
2023-11-07T06:27:59.999Z,72.75
2023-11-07T06:30:31.151Z,72.65
2023-11-07T06:32:58.863Z,72.64
2023-11-07T06:35:26.302Z,72.58
2023-11-07T06:37:53.231Z,72.76
2023-11-07T06:40:21.591Z,72.78
2023-11-07T06:42:49.425Z,72.76
2023-11-07T06:45:16.657Z,72.56
2023-11-07T06:47:45.551Z,72.39
2023-11-07T06:50:14.805Z,71.98
2023-11-07T06:52:43.554Z,71.60
2023-11-07T06:55:13.816Z,70.68
2023-11-07T06:57:41.916Z,69.49
2023-11-07T07:00:11.173Z,68.59
2023-11-07T07:02:40.068Z,67.71
2023-11-07T07:05:12.187Z,67.41
2023-11-07T07:07:39.595Z,66.87
2023-11-07T07:10:07.050Z,66.32
2023-11-07T07:12:34.116Z,66.22
2023-11-07T07:15:00.968Z,66.39
2023-11-07T07:17:28.822Z,65.95
2023-11-07T07:19:56.688Z,65.69
2023-11-07T07:22:28.921Z,65.39
2023-11-07T07:24:56.849Z,64.80
2023-11-07T07:27:28.175Z,64.38
2023-11-07T07:29:55.432Z,64.06
2023-11-07T07:32:22.585Z,63.36
2023-11-07T07:34:52.714Z,63.60
2023-11-07T07:37:22.213Z,63.44
2023-11-07T07:39:49.086Z,63.29
2023-11-07T07:42:18.717Z,62.86
2023-11-07T07:44:46.136Z,62.67
2023-11-07T07:47:13.532Z,62.12
2023-11-07T07:49:41.800Z,62.14
2023-11-07T07:52:11.199Z,62.12
2023-11-07T07:57:10.184Z,61.33
2023-11-07T07:59:42.581Z,60.89
2023-11-07T08:02:10.104Z,60.23
2023-11-07T08:04:37.366Z,59.90
2023-11-07T08:07:06.428Z,59.18
2023-11-07T08:09:33.392Z,58.52
2023-11-07T08:12:01.902Z,58.03
2023-11-07T08:14:30.891Z,57.18
2023-11-07T08:16:58.124Z,55.89
2023-11-07T08:19:25.866Z,55.09
2023-11-07T08:21:52.995Z,54.92
2023-11-07T08:24:20.201Z,54.27
2023-11-07T08:26:48.525Z,52.82
2023-11-07T08:29:17.125Z,53.01
2023-11-07T08:31:44.145Z,52.01
2023-11-07T08:34:11.194Z,52.27
2023-11-07T08:36:42.141Z,52.60
2023-11-07T08:39:25.216Z,52.24
2023-11-07T08:41:52.273Z,50.50
2023-11-07T08:44:20.429Z,50.79
2023-11-07T08:46:47.365Z,50.56
2023-11-07T08:49:17.674Z,50.24
2023-11-07T08:51:51.546Z,50.40
2023-11-07T08:54:20.385Z,50.16
2023-11-07T08:56:51.615Z,48.50
2023-11-07T08:59:19.455Z,48.13
2023-11-07T09:01:48.530Z,48.40
2023-11-07T09:04:16.059Z,48.19
2023-11-07T09:06:42.956Z,47.64
2023-11-07T09:09:15.532Z,47.99
2023-11-07T09:11:43.226Z,47.98
2023-11-07T09:14:10.502Z,46.89
2023-11-07T09:16:37.423Z,46.94
2023-11-07T09:19:05.942Z,47.24
2023-11-07T09:21:33.421Z,47.42
2023-11-07T09:24:00.371Z,47.05
2023-11-07T09:26:27.215Z,47.56
2023-11-07T09:28:54.071Z,47.14
2023-11-07T09:31:20.999Z,47.35
2023-11-07T09:33:48.062Z,47.79
2023-11-07T09:36:16.646Z,48.45
2023-11-07T09:38:49.898Z,48.29
2023-11-07T09:41:19.877Z,48.00
2023-11-07T09:43:47.448Z,48.26
2023-11-07T09:46:15.188Z,47.70
2023-11-07T09:48:43.409Z,48.46
2023-11-07T09:51:12.009Z,48.67
2023-11-07T09:53:41.171Z,48.66
2023-11-07T09:56:12.300Z,48.33
2023-11-07T09:58:44.970Z,47.78
2023-11-07T10:01:12.281Z,47.57
2023-11-07T10:03:41.472Z,47.56
2023-11-07T10:06:08.879Z,47.06
2023-11-07T10:08:36.366Z,47.46
2023-11-07T10:11:12.445Z,48.05
2023-11-07T10:13:40.437Z,46.92
2023-11-07T10:18:49.169Z,46.87
2023-11-07T10:21:31.102Z,45.17
2023-11-07T10:23:58.642Z,46.14
2023-11-07T10:26:25.851Z,45.82
2023-11-07T10:29:19.116Z,46.45
2023-11-07T10:31:58.693Z,45.38
2023-11-07T10:34:27.380Z,45.32
2023-11-07T10:36:55.475Z,45.40
2023-11-07T10:39:26.961Z,45.21
2023-11-07T10:41:56.454Z,44.83
2023-11-07T10:44:26.086Z,45.01
2023-11-07T10:46:54.948Z,44.64
2023-11-07T10:49:23.042Z,44.34
2023-11-07T10:51:53.071Z,44.77
2023-11-07T10:54:21.694Z,44.04
2023-11-07T10:56:51.773Z,43.59
2023-11-07T10:59:22.590Z,42.31
2023-11-07T11:01:51.708Z,42.21
2023-11-07T11:04:22.745Z,41.71
2023-11-07T11:06:53.844Z,41.87
2023-11-07T11:09:23.810Z,41.87
2023-11-07T11:11:53.227Z,42.84
2023-11-07T11:14:20.796Z,42.88
2023-11-07T11:16:51.632Z,43.12
2023-11-07T11:19:41.687Z,42.81
2023-11-07T11:22:10.029Z,42.64
2023-11-07T11:24:51.154Z,41.97
2023-11-07T11:27:24.793Z,41.51
2023-11-07T11:29:51.903Z,41.21
2023-11-07T11:32:29.281Z,41.34
2023-11-07T11:35:17.945Z,40.23
2023-11-07T11:38:12.256Z,39.64
2023-11-07T11:40:46.855Z,39.95
2023-11-07T11:43:13.760Z,40.59
2023-11-07T11:45:46.745Z,40.56
2023-11-07T11:48:14.747Z,40.86
2023-11-07T11:50:41.978Z,40.86
2023-11-07T11:53:10.656Z,41.02
2023-11-07T11:56:00.474Z,40.51
2023-11-07T11:58:33.121Z,40.44
2023-11-07T12:01:01.985Z,40.45
2023-11-07T12:03:41.191Z,40.91
2023-11-07T12:06:08.369Z,41.04
2023-11-07T12:08:37.659Z,41.19
2023-11-07T12:11:06.173Z,41.18
2023-11-07T12:13:34.120Z,40.70
2023-11-07T12:16:17.764Z,40.22
2023-11-07T12:18:48.079Z,39.16
2023-11-07T12:21:26.977Z,37.91
2023-11-07T12:23:57.849Z,38.11
2023-11-07T12:26:39.500Z,37.52
2023-11-07T12:29:07.609Z,36.25
2023-11-07T12:31:35.465Z,36.16
2023-11-07T12:34:02.426Z,36.64
2023-11-07T12:36:30.958Z,36.80
2023-11-07T12:38:58.243Z,36.99
2023-11-07T12:41:25.458Z,36.13
2023-11-07T12:43:52.448Z,36.53
2023-11-07T12:46:21.566Z,37.31
2023-11-07T12:48:54.089Z,38.51
2023-11-07T12:51:22.292Z,39.77
2023-11-07T12:53:50.530Z,40.10
2023-11-07T12:56:20.073Z,38.84
2023-11-07T12:58:47.689Z,38.43
2023-11-07T13:01:16.722Z,38.32
2023-11-07T13:03:44.296Z,38.37
2023-11-07T13:06:14.896Z,39.76
2023-11-07T13:08:43.422Z,41.37
2023-11-07T13:11:14.514Z,42.17
2023-11-07T13:13:43.302Z,43.03
2023-11-07T13:16:10.586Z,44.25
2023-11-07T13:18:38.547Z,45.07
2023-11-07T13:21:06.832Z,45.70
2023-11-07T13:23:33.829Z,45.67
2023-11-07T13:26:00.834Z,45.30
2023-11-07T13:28:29.166Z,45.75
2023-11-07T13:30:56.817Z,46.42
2023-11-07T13:33:24.042Z,46.89
2023-11-07T13:35:51.254Z,47.23
2023-11-07T13:38:18.413Z,47.66
2023-11-07T13:40:46.697Z,48.28
2023-11-07T13:43:14.367Z,48.69
2023-11-07T13:45:41.478Z,48.34
2023-11-07T13:48:08.656Z,48.57
2023-11-07T13:50:35.622Z,49.36
2023-11-07T13:53:02.549Z,49.38
2023-11-07T13:55:30.419Z,49.70
2023-11-07T13:57:57.307Z,49.79
2023-11-07T14:00:24.991Z,50.20
2023-11-07T14:03:08.879Z,50.25
2023-11-07T14:05:35.906Z,50.16
2023-11-07T14:08:03.232Z,49.97
2023-11-07T14:10:32.774Z,49.47
2023-11-07T14:13:00.134Z,49.31
2023-11-07T14:15:34.626Z,49.23
2023-11-07T14:18:08.546Z,49.46
2023-11-07T14:20:40.796Z,50.07
2023-11-07T14:23:10.629Z,50.50
2023-11-07T14:25:38.164Z,50.85
2023-11-07T14:28:07.658Z,51.40
2023-11-07T14:30:39.964Z,51.86
2023-11-07T14:33:08.863Z,52.11
2023-11-07T14:35:36.205Z,52.33
2023-11-07T14:38:04.224Z,52.70
2023-11-07T14:40:32.277Z,53.24
2023-11-07T14:42:59.402Z,53.65
2023-11-07T14:45:26.665Z,54.05
2023-11-07T14:47:54.564Z,54.85
2023-11-07T14:50:22.053Z,55.93
2023-11-07T14:52:49.241Z,56.73
2023-11-07T14:55:17.593Z,56.81
2023-11-07T14:57:45.437Z,56.74
2023-11-07T15:00:28.662Z,57.01
2023-11-07T15:02:58.463Z,57.91
2023-11-07T15:05:27.231Z,58.55
2023-11-07T15:07:55.559Z,58.58
2023-11-07T15:10:25.255Z,59.14
2023-11-07T15:12:53.493Z,59.85
2023-11-07T15:15:21.032Z,60.32
2023-11-07T15:17:48.454Z,60.73
2023-11-07T15:20:16.283Z,60.87
2023-11-07T15:22:44.107Z,61.09
2023-11-07T15:25:14.484Z,61.45
2023-11-07T15:27:43.523Z,61.93
2023-11-07T15:30:12.484Z,62.35
2023-11-07T15:32:40.382Z,62.98
2023-11-07T15:35:12.010Z,63.33
2023-11-07T15:37:39.327Z,63.51
2023-11-07T15:40:08.661Z,63.81
2023-11-07T15:42:36.549Z,63.95
2023-11-07T15:45:03.675Z,64.40
2023-11-07T15:47:30.629Z,64.93
2023-11-07T15:49:57.658Z,65.50
2023-11-07T15:52:25.004Z,66.16
2023-11-07T15:54:51.876Z,66.33
2023-11-07T15:57:18.829Z,66.72
2023-11-07T15:59:45.725Z,67.20
2023-11-07T16:02:12.649Z,67.34
2023-11-07T16:04:39.562Z,67.72
2023-11-07T16:07:07.859Z,67.61
2023-11-07T16:09:35.327Z,67.67
2023-11-07T16:12:02.196Z,68.38
2023-11-07T16:14:29.201Z,68.52
2023-11-07T16:16:56.107Z,68.78
2023-11-07T16:19:23.036Z,69.36
2023-11-07T16:21:50.582Z,69.85
2023-11-07T16:24:17.555Z,70.11
2023-11-07T16:26:44.910Z,69.96
2023-11-07T16:29:12.118Z,70.15
2023-11-07T16:31:39.427Z,70.55
2023-11-07T16:34:06.454Z,70.49
2023-11-07T16:36:33.517Z,70.81
2023-11-07T16:39:00.423Z,71.06
2023-11-07T16:41:27.385Z,71.13
2023-11-07T16:43:54.454Z,71.41
2023-11-07T16:46:21.335Z,71.60
2023-11-07T16:48:48.350Z,71.99
2023-11-07T16:51:16.434Z,72.05
2023-11-07T16:53:44.112Z,72.31
2023-11-07T16:56:14.443Z,72.34
2023-11-07T16:58:41.303Z,72.64
2023-11-07T17:01:08.727Z,73.12
2023-11-07T17:03:35.660Z,73.36
2023-11-07T17:06:02.596Z,73.82
2023-11-07T17:08:29.674Z,74.12
2023-11-07T17:10:56.694Z,74.57
2023-11-07T17:13:24.204Z,74.71
2023-11-07T17:15:53.163Z,74.66
2023-11-07T17:18:20.699Z,74.62
2023-11-07T17:20:47.688Z,74.43
2023-11-07T17:23:15.888Z,73.89
2023-11-07T17:25:43.031Z,74.33
2023-11-07T17:28:10.890Z,74.41
2023-11-07T17:30:37.968Z,74.77
2023-11-07T17:33:05.768Z,74.93
2023-11-07T17:35:32.624Z,74.88
2023-11-07T17:37:59.457Z,75.04
2023-11-07T17:40:26.899Z,74.82
2023-11-07T17:42:53.897Z,74.35
2023-11-07T17:45:20.805Z,74.54
2023-11-07T17:47:47.725Z,74.83
2023-11-07T17:50:14.859Z,76.39
2023-11-07T17:52:43.403Z,77.37
2023-11-07T17:55:10.379Z,77.51
2023-11-07T17:57:37.342Z,77.57
2023-11-07T18:00:05.169Z,77.98
2023-11-07T18:02:39.679Z,77.64
2023-11-07T18:05:06.879Z,77.47
2023-11-07T18:07:34.646Z,77.47
2023-11-07T18:10:02.049Z,77.55
2023-11-07T18:12:29.096Z,77.45
2023-11-07T18:14:56.429Z,76.88
2023-11-07T18:17:23.358Z,77.05
2023-11-07T18:19:50.529Z,76.88
2023-11-07T18:22:17.511Z,76.77
2023-11-07T18:24:45.001Z,76.26
2023-11-07T18:27:11.909Z,76.37
2023-11-07T18:29:38.827Z,75.88
2023-11-07T18:32:08.360Z,75.49
2023-11-07T18:34:38.367Z,75.46
2023-11-07T18:37:06.803Z,75.44
2023-11-07T18:39:37.270Z,75.05
2023-11-07T18:42:04.940Z,75.55
2023-11-07T18:44:35.944Z,76.09
2023-11-07T18:47:03.569Z,77.89
2023-11-07T18:49:30.902Z,79.06
2023-11-07T18:51:58.624Z,79.79
2023-11-07T18:54:28.454Z,80.07
2023-11-07T18:56:59.305Z,79.88
2023-11-07T18:59:34.490Z,79.71
2023-11-07T19:02:07.813Z,79.20
2023-11-07T19:04:37.972Z,79.15
2023-11-07T19:07:06.504Z,79.39
2023-11-07T19:09:33.931Z,79.04
2023-11-07T19:12:04.177Z,78.98
2023-11-07T19:14:31.633Z,78.40
2023-11-07T19:16:59.023Z,78.25
2023-11-07T19:19:26.006Z,77.98
2023-11-07T19:21:53.042Z,77.63
2023-11-07T19:24:22.169Z,77.58
2023-11-07T19:26:50.359Z,77.13
2023-11-07T19:29:18.070Z,76.36
2023-11-07T19:31:48.126Z,76.60
2023-11-07T19:34:16.133Z,76.47
2023-11-07T19:36:44.464Z,76.25
2023-11-07T19:39:11.574Z,76.41
2023-11-07T19:41:38.930Z,76.46
2023-11-07T19:44:06.575Z,76.27
2023-11-07T19:46:35.173Z,76.68
2023-11-07T19:49:02.496Z,77.09
2023-11-07T19:51:30.582Z,77.32
2023-11-07T19:53:57.426Z,78.44
2023-11-07T19:56:24.945Z,79.15
2023-11-07T19:58:59.710Z,79.97
2023-11-07T20:01:27.622Z,80.82
2023-11-07T20:03:55.428Z,81.42
2023-11-07T20:06:23.895Z,80.96
2023-11-07T20:08:51.443Z,81.15
2023-11-07T20:11:19.039Z,80.67
2023-11-07T20:13:46.334Z,80.82
2023-11-07T20:16:14.579Z,80.01
2023-11-07T20:18:42.131Z,81.22
2023-11-07T20:21:09.427Z,82.20
2023-11-07T20:23:37.928Z,82.72
2023-11-07T20:26:05.849Z,82.73
2023-11-07T20:28:33.421Z,82.82
2023-11-07T20:31:00.435Z,81.64
2023-11-07T20:33:37.217Z,80.83
2023-11-07T20:36:16.355Z,80.18
2023-11-07T20:38:43.341Z,79.57
2023-11-07T20:41:11.373Z,79.43
2023-11-07T20:43:38.734Z,80.63
2023-11-07T20:46:09.314Z,80.75
2023-11-07T20:48:40.156Z,80.47
2023-11-07T20:51:07.201Z,80.02
2023-11-07T20:53:35.598Z,79.30
2023-11-07T20:56:03.401Z,78.62
2023-11-07T20:58:30.446Z,77.99
2023-11-07T21:00:58.703Z,77.22
2023-11-07T21:03:26.249Z,76.60
2023-11-07T21:05:53.219Z,76.01
2023-11-07T21:08:20.154Z,75.47
2023-11-07T21:10:47.077Z,75.20
2023-11-07T21:13:14.099Z,74.74
2023-11-07T21:15:41.090Z,74.40
2023-11-07T21:18:08.925Z,74.05
2023-11-07T21:20:36.021Z,73.72
2023-11-07T21:23:03.155Z,73.72
2023-11-07T21:25:30.548Z,73.56
2023-11-07T21:27:59.403Z,73.45
2023-11-07T21:30:27.546Z,73.29
2023-11-07T21:32:54.809Z,73.27
2023-11-07T21:35:23.226Z,73.19
2023-11-07T21:37:51.141Z,73.26
2023-11-07T21:40:18.223Z,73.13
2023-11-07T21:42:45.297Z,72.77
2023-11-07T21:45:12.318Z,72.87
2023-11-07T21:47:39.343Z,72.80
2023-11-07T21:50:06.909Z,72.81
2023-11-07T21:52:33.768Z,72.37
2023-11-07T21:55:00.808Z,72.42
2023-11-07T21:57:27.802Z,72.31
2023-11-07T21:59:54.703Z,72.30
2023-11-07T22:02:21.788Z,72.20
2023-11-07T22:04:48.676Z,72.26
2023-11-07T22:07:15.631Z,72.19
2023-11-07T22:09:42.545Z,72.36
2023-11-07T22:12:09.654Z,72.37
2023-11-07T22:14:36.634Z,72.39
2023-11-07T22:17:03.941Z,72.51
2023-11-07T22:19:31.133Z,72.69
2023-11-07T22:21:58.677Z,72.97
2023-11-07T22:24:26.705Z,73.07
2023-11-07T22:26:55.442Z,73.46
2023-11-07T22:29:22.447Z,73.77
2023-11-07T22:31:49.353Z,74.16
2023-11-07T22:34:16.278Z,75.09
2023-11-07T22:36:43.244Z,75.70
2023-11-07T22:39:10.834Z,76.07
2023-11-07T22:41:37.795Z,76.53
2023-11-07T22:44:04.878Z,76.87
2023-11-07T22:46:31.797Z,77.09
2023-11-07T22:48:59.212Z,77.23
2023-11-07T22:51:26.396Z,77.17
2023-11-07T22:53:53.320Z,77.23
2023-11-07T22:56:20.620Z,77.51
2023-11-07T22:58:47.550Z,77.62
2023-11-07T23:01:14.861Z,77.46
2023-11-07T23:03:42.432Z,77.48
2023-11-07T23:06:09.404Z,77.50
2023-11-07T23:08:36.335Z,77.31
2023-11-07T23:11:03.557Z,77.28
2023-11-07T23:13:30.844Z,77.15
2023-11-07T23:15:58.649Z,77.05
2023-11-07T23:18:25.631Z,77.24
2023-11-07T23:20:52.533Z,77.13
2023-11-07T23:23:19.650Z,77.19
2023-11-07T23:25:47.185Z,77.35
2023-11-07T23:28:14.594Z,77.78
2023-11-07T23:30:41.808Z,78.00
2023-11-07T23:33:08.929Z,78.27
2023-11-07T23:35:35.866Z,78.51
2023-11-07T23:38:02.769Z,78.72
2023-11-07T23:40:30.326Z,79.01
2023-11-07T23:42:58.791Z,79.18
2023-11-07T23:45:25.803Z,79.48
2023-11-07T23:47:52.760Z,79.54
2023-11-07T23:50:20.593Z,79.79
2023-11-07T23:52:48.157Z,80.15
2023-11-07T23:55:15.046Z,80.51
2023-11-07T23:57:42.302Z,80.73
